Hamilton, North Carolina
Current Conditions -  °F | °C
As of 6:55 AM on Wednesday 28 Jan 2015 (Local Time) from KETC Reporting Station
Clear Clear  
Wind Chill: 24°   Ceiling: Unl
Heat Index: 29°   Visibility: 10mi
Dew Point: 20°   Wind: 5mph
Humidity: 68%   Direction: 330°NNW
Pressure: 30.15"   Gusts: NA
Location:  35.94°N, 77.21°W
Report Text: KETC 281155Z AUTO 33004KT 10SM CLR M02/M07 A3015 RMK AO2 T10161068 10241 21105
Loading
Personal Weather Stations






























Interactive Weather Map New forecast layout! Learn more

10-Day Weather Forecast

Advertisements
Track Severe Weather on mobile